logo dgac
Martes 06 de Diciembre del 2022
Buscar por aerodromo o helipuerto
Ingrese nombre de aeródromo, localidad o designador OACI:
TAF: TAF SCFA 060400Z 0606/0706 02004KT CAVOK TN16/0606Z TX20/0618Z BECMG 0615/0617 21015KT FEW020 BECMG 0622/0624 BKN011 BECMG 0702/0704 34004KT CAVOK
TAF del 06/12/2022 a las 04:00 UTC
Para mayor información visite www.meteochile.cl
Período de validez: desde el 06 a las 06:00 UTC hasta el 07 a las 06:00 UTC
Viento: dirección 020 grados, velocidad 4 nudos
Visibilidad: 10 km o más,
    sin nubes bajo los 5.000 pies o bajo del MSA (Mínimo de Seguridad del Aeródromo),
    sin cumulonimbus, y sin fenómenos de tiempo significativo en el aeródromo o alrededores
Temperatura mínima: 16ºC el 06 a las 06:00 UTC
Temperatura máxima: 20ºC el 06 a las 18:00 UTC
Se espera un cambio entre las 15:00 UTC del 06 y las 17:00 UTC del 06, :
Viento: dirección 210 grados, velocidad 15 nudos
Nubes: Escasa nubosidad a 2000 pies sobre el nivel del aeródromo
Se espera un cambio entre las 22:00 UTC del 06 y las 24:00 UTC del 06, :
Nubes: Nublado a 1100 pies sobre el nivel del aeródromo
Se espera un cambio entre las 02:00 UTC del 07 y las 04:00 UTC del 07, :
Viento: dirección 340 grados, velocidad 4 nudos
Visibilidad: 10 km o más,
    sin nubes bajo los 5.000 pies o bajo del MSA (Mínimo de Seguridad del Aeródromo),
    sin cumulonimbus, y sin fenómenos de tiempo significativo en el aeródromo o alrededores